sensor_id;sensor_type;location;lat;lon;timestamp;P1;durP1;ratioP1;P2;durP2;ratioP2
9773;SDS011;4926;42.670;23.316;2022-07-15T00:00:12;4.97;;;3.05;;
9773;SDS011;4926;42.670;23.316;2022-07-15T00:02:40;6.68;;;3.00;;
9773;SDS011;4926;42.670;23.316;2022-07-15T00:05:07;5.47;;;3.20;;
9773;SDS011;4926;42.670;23.316;2022-07-15T00:07:35;5.72;;;3.13;;
9773;SDS011;4926;42.670;23.316;2022-07-15T00:10:11;5.32;;;2.88;;
9773;SDS011;4926;42.670;23.316;2022-07-15T00:12:44;5.45;;;2.60;;
9773;SDS011;4926;42.670;23.316;2022-07-15T00:15:13;4.40;;;2.75;;
9773;SDS011;4926;42.670;23.316;2022-07-15T00:17:41;3.20;;;2.90;;
9773;SDS011;4926;42.670;23.316;2022-07-15T00:20:09;3.28;;;2.70;;
9773;SDS011;4926;42.670;23.316;2022-07-15T00:22:36;7.65;;;3.03;;
9773;SDS011;4926;42.670;23.316;2022-07-15T00:25:04;8.70;;;3.30;;
9773;SDS011;4926;42.670;23.316;2022-07-15T00:27:31;4.43;;;3.10;;
9773;SDS011;4926;42.670;23.316;2022-07-15T00:30:01;4.05;;;2.60;;
9773;SDS011;4926;42.670;23.316;2022-07-15T00:32:28;4.40;;;2.75;;
9773;SDS011;4926;42.670;23.316;2022-07-15T00:34:55;4.53;;;2.80;;
9773;SDS011;4926;42.670;23.316;2022-07-15T00:37:22;3.55;;;2.42;;
9773;SDS011;4926;42.670;23.316;2022-07-15T00:39:49;5.93;;;2.40;;
9773;SDS011;4926;42.670;23.316;2022-07-15T00:42:18;5.72;;;2.63;;
9773;SDS011;4926;42.670;23.316;2022-07-15T00:45:00;5.63;;;3.00;;
9773;SDS011;4926;42.670;23.316;2022-07-15T00:47:27;6.05;;;2.85;;
9773;SDS011;4926;42.670;23.316;2022-07-15T00:49:54;5.38;;;2.90;;
9773;SDS011;4926;42.670;23.316;2022-07-15T00:52:21;7.60;;;4.60;;
9773;SDS011;4926;42.670;23.316;2022-07-15T00:54:53;17.15;;;9.38;;
9773;SDS011;4926;42.670;23.316;2022-07-15T00:57:29;22.52;;;12.63;;
9773;SDS011;4926;42.670;23.316;2022-07-15T00:59:57;25.45;;;14.32;;
9773;SDS011;4926;42.670;23.316;2022-07-15T01:02:30;26.77;;;15.40;;
9773;SDS011;4926;42.670;23.316;2022-07-15T01:05:00;29.98;;;16.73;;
9773;SDS011;4926;42.670;23.316;2022-07-15T01:07:29;29.05;;;16.20;;
9773;SDS011;4926;42.670;23.316;2022-07-15T01:09:56;21.35;;;11.85;;
9773;SDS011;4926;42.670;23.316;2022-07-15T01:12:23;17.63;;;9.52;;
9773;SDS011;4926;42.670;23.316;2022-07-15T01:14:50;14.38;;;8.30;;
9773;SDS011;4926;42.670;23.316;2022-07-15T01:17:18;12.98;;;7.10;;
9773;SDS011;4926;42.670;23.316;2022-07-15T01:19:45;12.18;;;6.28;;
9773;SDS011;4926;42.670;23.316;2022-07-15T01:22:16;11.73;;;6.20;;
9773;SDS011;4926;42.670;23.316;2022-07-15T01:24:43;15.02;;;5.88;;
9773;SDS011;4926;42.670;23.316;2022-07-15T01:27:10;9.70;;;6.45;;
9773;SDS011;4926;42.670;23.316;2022-07-15T01:29:37;14.40;;;8.40;;
9773;SDS011;4926;42.670;23.316;2022-07-15T01:32:04;14.45;;;8.00;;
9773;SDS011;4926;42.670;23.316;2022-07-15T01:34:31;13.88;;;7.30;;
9773;SDS011;4926;42.670;23.316;2022-07-15T01:36:58;15.10;;;7.05;;
9773;SDS011;4926;42.670;23.316;2022-07-15T01:39:29;13.57;;;7.35;;
9773;SDS011;4926;42.670;23.316;2022-07-15T01:41:56;16.52;;;8.35;;
9773;SDS011;4926;42.670;23.316;2022-07-15T01:44:22;11.80;;;7.97;;
9773;SDS011;4926;42.670;23.316;2022-07-15T01:46:49;12.57;;;7.45;;
9773;SDS011;4926;42.670;23.316;2022-07-15T01:49:19;12.73;;;7.80;;
9773;SDS011;4926;42.670;23.316;2022-07-15T01:51:47;14.93;;;8.40;;
9773;SDS011;4926;42.670;23.316;2022-07-15T01:54:15;16.38;;;8.52;;
9773;SDS011;4926;42.670;23.316;2022-07-15T01:56:43;12.65;;;8.20;;
9773;SDS011;4926;42.670;23.316;2022-07-15T01:59:10;16.27;;;9.50;;
9773;SDS011;4926;42.670;23.316;2022-07-15T02:01:37;15.18;;;8.52;;
9773;SDS011;4926;42.670;23.316;2022-07-15T02:04:06;12.32;;;7.82;;
9773;SDS011;4926;42.670;23.316;2022-07-15T02:06:32;13.32;;;8.35;;
9773;SDS011;4926;42.670;23.316;2022-07-15T02:08:59;13.18;;;7.88;;
9773;SDS011;4926;42.670;23.316;2022-07-15T02:11:26;14.20;;;7.75;;
9773;SDS011;4926;42.670;23.316;2022-07-15T02:13:55;10.35;;;7.10;;
9773;SDS011;4926;42.670;23.316;2022-07-15T02:16:24;10.93;;;7.15;;
9773;SDS011;4926;42.670;23.316;2022-07-15T02:18:54;10.05;;;6.60;;
9773;SDS011;4926;42.670;23.316;2022-07-15T02:21:22;13.63;;;7.40;;
9773;SDS011;4926;42.670;23.316;2022-07-15T02:23:49;10.55;;;7.20;;
9773;SDS011;4926;42.670;23.316;2022-07-15T02:26:19;11.43;;;6.60;;
9773;SDS011;4926;42.670;23.316;2022-07-15T02:28:46;10.77;;;6.95;;
9773;SDS011;4926;42.670;23.316;2022-07-15T02:31:17;14.25;;;7.18;;
9773;SDS011;4926;42.670;23.316;2022-07-15T02:33:46;9.50;;;5.80;;
9773;SDS011;4926;42.670;23.316;2022-07-15T02:36:13;8.27;;;5.90;;
9773;SDS011;4926;42.670;23.316;2022-07-15T02:38:39;10.30;;;6.03;;
9773;SDS011;4926;42.670;23.316;2022-07-15T02:41:07;9.15;;;5.03;;
9773;SDS011;4926;42.670;23.316;2022-07-15T02:43:34;12.30;;;6.05;;
9773;SDS011;4926;42.670;23.316;2022-07-15T02:46:05;6.80;;;4.63;;
9773;SDS011;4926;42.670;23.316;2022-07-15T02:48:36;7.28;;;5.25;;
9773;SDS011;4926;42.670;23.316;2022-07-15T02:51:04;9.45;;;5.18;;
9773;SDS011;4926;42.670;23.316;2022-07-15T02:53:35;8.65;;;5.50;;
9773;SDS011;4926;42.670;23.316;2022-07-15T02:56:02;10.98;;;4.38;;
9773;SDS011;4926;42.670;23.316;2022-07-15T02:58:32;6.95;;;4.03;;
9773;SDS011;4926;42.670;23.316;2022-07-15T03:00:59;6.25;;;3.90;;
9773;SDS011;4926;42.670;23.316;2022-07-15T03:03:27;8.13;;;4.07;;
9773;SDS011;4926;42.670;23.316;2022-07-15T03:05:56;11.82;;;3.88;;
9773;SDS011;4926;42.670;23.316;2022-07-15T03:08:24;6.53;;;3.10;;
9773;SDS011;4926;42.670;23.316;2022-07-15T03:10:51;5.75;;;3.35;;
9773;SDS011;4926;42.670;23.316;2022-07-15T03:13:18;7.03;;;3.15;;
9773;SDS011;4926;42.670;23.316;2022-07-15T03:15:45;5.15;;;3.20;;
9773;SDS011;4926;42.670;23.316;2022-07-15T03:18:12;3.50;;;2.88;;
9773;SDS011;4926;42.670;23.316;2022-07-15T03:20:42;5.95;;;3.15;;
9773;SDS011;4926;42.670;23.316;2022-07-15T03:23:12;5.30;;;3.15;;
9773;SDS011;4926;42.670;23.316;2022-07-15T03:25:39;14.60;;;3.03;;
9773;SDS011;4926;42.670;23.316;2022-07-15T03:28:06;6.32;;;2.85;;
9773;SDS011;4926;42.670;23.316;2022-07-15T03:30:37;6.53;;;2.95;;
9773;SDS011;4926;42.670;23.316;2022-07-15T03:33:07;4.15;;;2.60;;
9773;SDS011;4926;42.670;23.316;2022-07-15T03:35:39;4.82;;;2.70;;
9773;SDS011;4926;42.670;23.316;2022-07-15T03:38:07;3.15;;;2.60;;
9773;SDS011;4926;42.670;23.316;2022-07-15T03:40:36;3.72;;;2.78;;
9773;SDS011;4926;42.670;23.316;2022-07-15T03:43:04;7.13;;;2.85;;
9773;SDS011;4926;42.670;23.316;2022-07-15T03:45:31;5.63;;;3.08;;
9773;SDS011;4926;42.670;23.316;2022-07-15T03:48:07;5.93;;;3.20;;
9773;SDS011;4926;42.670;23.316;2022-07-15T03:50:34;5.85;;;3.03;;
9773;SDS011;4926;42.670;23.316;2022-07-15T03:53:01;4.75;;;2.83;;
9773;SDS011;4926;42.670;23.316;2022-07-15T03:55:29;4.45;;;2.90;;
9773;SDS011;4926;42.670;23.316;2022-07-15T03:57:57;6.28;;;3.10;;
9773;SDS011;4926;42.670;23.316;2022-07-15T04:00:24;3.30;;;2.72;;
9773;SDS011;4926;42.670;23.316;2022-07-15T04:02:50;4.68;;;3.30;;
9773;SDS011;4926;42.670;23.316;2022-07-15T04:05:17;4.28;;;2.92;;
9773;SDS011;4926;42.670;23.316;2022-07-15T04:07:46;6.47;;;3.33;;
9773;SDS011;4926;42.670;23.316;2022-07-15T04:10:18;5.47;;;3.72;;
9773;SDS011;4926;42.670;23.316;2022-07-15T04:12:45;7.47;;;4.65;;
9773;SDS011;4926;42.670;23.316;2022-07-15T04:15:13;7.43;;;4.70;;
9773;SDS011;4926;42.670;23.316;2022-07-15T04:17:40;7.43;;;4.45;;
9773;SDS011;4926;42.670;23.316;2022-07-15T04:20:08;5.63;;;4.22;;
9773;SDS011;4926;42.670;23.316;2022-07-15T04:22:40;10.00;;;4.00;;
9773;SDS011;4926;42.670;23.316;2022-07-15T04:25:07;9.23;;;3.95;;
9773;SDS011;4926;42.670;23.316;2022-07-15T04:27:35;7.75;;;3.67;;
9773;SDS011;4926;42.670;23.316;2022-07-15T04:30:02;5.95;;;3.92;;
9773;SDS011;4926;42.670;23.316;2022-07-15T04:32:33;10.48;;;3.78;;
9773;SDS011;4926;42.670;23.316;2022-07-15T04:35:01;7.60;;;3.63;;
9773;SDS011;4926;42.670;23.316;2022-07-15T04:37:28;4.40;;;3.72;;
9773;SDS011;4926;42.670;23.316;2022-07-15T04:39:57;5.97;;;3.40;;
9773;SDS011;4926;42.670;23.316;2022-07-15T04:42:26;4.68;;;3.22;;
9773;SDS011;4926;42.670;23.316;2022-07-15T04:44:52;6.03;;;3.28;;
9773;SDS011;4926;42.670;23.316;2022-07-15T04:47:22;5.63;;;3.47;;
9773;SDS011;4926;42.670;23.316;2022-07-15T04:49:52;3.42;;;3.10;;
9773;SDS011;4926;42.670;23.316;2022-07-15T04:52:38;3.83;;;3.33;;
9773;SDS011;4926;42.670;23.316;2022-07-15T04:55:10;7.30;;;3.58;;
9773;SDS011;4926;42.670;23.316;2022-07-15T04:57:38;6.82;;;3.08;;
9773;SDS011;4926;42.670;23.316;2022-07-15T05:00:08;4.38;;;3.42;;
9773;SDS011;4926;42.670;23.316;2022-07-15T05:02:35;3.65;;;2.90;;
9773;SDS011;4926;42.670;23.316;2022-07-15T05:07:43;5.60;;;3.40;;
9773;SDS011;4926;42.670;23.316;2022-07-15T05:10:11;6.22;;;3.17;;
9773;SDS011;4926;42.670;23.316;2022-07-15T05:12:48;6.47;;;2.67;;
9773;SDS011;4926;42.670;23.316;2022-07-15T05:15:15;5.00;;;2.70;;
9773;SDS011;4926;42.670;23.316;2022-07-15T05:17:41;8.45;;;2.78;;
9773;SDS011;4926;42.670;23.316;2022-07-15T05:20:10;6.15;;;2.65;;
9773;SDS011;4926;42.670;23.316;2022-07-15T05:22:42;5.57;;;2.83;;
9773;SDS011;4926;42.670;23.316;2022-07-15T05:25:11;3.08;;;2.67;;
9773;SDS011;4926;42.670;23.316;2022-07-15T05:27:39;3.70;;;2.78;;
9773;SDS011;4926;42.670;23.316;2022-07-15T05:30:19;4.70;;;2.97;;
9773;SDS011;4926;42.670;23.316;2022-07-15T05:32:46;6.95;;;3.33;;
9773;SDS011;4926;42.670;23.316;2022-07-15T05:35:13;6.03;;;2.90;;
9773;SDS011;4926;42.670;23.316;2022-07-15T05:37:43;4.72;;;2.67;;
9773;SDS011;4926;42.670;23.316;2022-07-15T05:40:11;7.18;;;3.47;;
9773;SDS011;4926;42.670;23.316;2022-07-15T05:42:40;5.43;;;2.97;;
9773;SDS011;4926;42.670;23.316;2022-07-15T05:45:07;6.75;;;2.75;;
9773;SDS011;4926;42.670;23.316;2022-07-15T05:47:34;3.70;;;2.65;;
9773;SDS011;4926;42.670;23.316;2022-07-15T05:50:01;5.60;;;3.17;;
9773;SDS011;4926;42.670;23.316;2022-07-15T05:52:29;8.68;;;2.65;;
9773;SDS011;4926;42.670;23.316;2022-07-15T05:54:57;4.13;;;2.60;;
9773;SDS011;4926;42.670;23.316;2022-07-15T05:57:26;2.88;;;2.60;;
9773;SDS011;4926;42.670;23.316;2022-07-15T05:59:53;9.27;;;2.92;;
9773;SDS011;4926;42.670;23.316;2022-07-15T06:02:19;3.50;;;2.85;;
9773;SDS011;4926;42.670;23.316;2022-07-15T06:04:46;5.70;;;3.10;;
9773;SDS011;4926;42.670;23.316;2022-07-15T06:07:15;15.98;;;4.05;;
9773;SDS011;4926;42.670;23.316;2022-07-15T06:09:42;11.98;;;2.97;;
9773;SDS011;4926;42.670;23.316;2022-07-15T06:12:10;5.15;;;2.90;;
9773;SDS011;4926;42.670;23.316;2022-07-15T06:14:37;9.25;;;3.05;;
9773;SDS011;4926;42.670;23.316;2022-07-15T06:17:06;5.72;;;2.90;;
9773;SDS011;4926;42.670;23.316;2022-07-15T06:19:33;7.03;;;2.85;;
9773;SDS011;4926;42.670;23.316;2022-07-15T06:22:00;8.27;;;3.65;;
9773;SDS011;4926;42.670;23.316;2022-07-15T06:24:27;9.63;;;3.40;;
9773;SDS011;4926;42.670;23.316;2022-07-15T06:26:54;5.43;;;3.60;;
9773;SDS011;4926;42.670;23.316;2022-07-15T06:29:22;8.65;;;3.75;;
9773;SDS011;4926;42.670;23.316;2022-07-15T06:31:49;11.27;;;3.42;;
9773;SDS011;4926;42.670;23.316;2022-07-15T06:34:16;6.35;;;3.58;;
9773;SDS011;4926;42.670;23.316;2022-07-15T06:36:43;9.48;;;3.63;;
9773;SDS011;4926;42.670;23.316;2022-07-15T06:39:13;9.05;;;3.90;;
9773;SDS011;4926;42.670;23.316;2022-07-15T06:41:43;6.50;;;3.35;;
9773;SDS011;4926;42.670;23.316;2022-07-15T06:44:13;4.40;;;3.45;;
9773;SDS011;4926;42.670;23.316;2022-07-15T06:46:43;6.57;;;3.05;;
9773;SDS011;4926;42.670;23.316;2022-07-15T06:49:10;7.05;;;3.28;;
9773;SDS011;4926;42.670;23.316;2022-07-15T06:51:37;8.85;;;3.30;;
9773;SDS011;4926;42.670;23.316;2022-07-15T06:54:06;8.57;;;3.47;;
9773;SDS011;4926;42.670;23.316;2022-07-15T06:56:36;5.45;;;3.20;;
9773;SDS011;4926;42.670;23.316;2022-07-15T06:59:03;7.18;;;3.40;;
9773;SDS011;4926;42.670;23.316;2022-07-15T07:01:32;5.65;;;3.15;;
9773;SDS011;4926;42.670;23.316;2022-07-15T07:04:02;11.43;;;4.03;;
9773;SDS011;4926;42.670;23.316;2022-07-15T07:06:29;8.98;;;3.47;;
9773;SDS011;4926;42.670;23.316;2022-07-15T07:08:56;6.55;;;3.80;;
9773;SDS011;4926;42.670;23.316;2022-07-15T07:11:25;5.25;;;4.07;;
9773;SDS011;4926;42.670;23.316;2022-07-15T07:13:52;9.05;;;3.97;;
9773;SDS011;4926;42.670;23.316;2022-07-15T07:16:19;6.43;;;3.45;;
9773;SDS011;4926;42.670;23.316;2022-07-15T07:18:46;9.00;;;3.70;;
9773;SDS011;4926;42.670;23.316;2022-07-15T07:21:17;8.40;;;3.47;;
9773;SDS011;4926;42.670;23.316;2022-07-15T07:23:47;11.05;;;3.88;;
9773;SDS011;4926;42.670;23.316;2022-07-15T07:26:14;12.40;;;3.60;;
9773;SDS011;4926;42.670;23.316;2022-07-15T07:28:44;7.20;;;3.35;;
9773;SDS011;4926;42.670;23.316;2022-07-15T07:31:14;4.65;;;2.95;;
9773;SDS011;4926;42.670;23.316;2022-07-15T07:33:43;11.15;;;3.33;;
9773;SDS011;4926;42.670;23.316;2022-07-15T07:36:10;7.45;;;4.10;;
9773;SDS011;4926;42.670;23.316;2022-07-15T07:38:43;10.80;;;3.00;;
9773;SDS011;4926;42.670;23.316;2022-07-15T07:41:10;3.65;;;2.60;;
9773;SDS011;4926;42.670;23.316;2022-07-15T07:43:38;5.53;;;2.50;;
9773;SDS011;4926;42.670;23.316;2022-07-15T07:46:07;5.97;;;2.67;;
9773;SDS011;4926;42.670;23.316;2022-07-15T07:48:34;2.92;;;2.47;;
9773;SDS011;4926;42.670;23.316;2022-07-15T07:51:01;10.23;;;2.72;;
9773;SDS011;4926;42.670;23.316;2022-07-15T07:53:30;4.90;;;2.67;;
9773;SDS011;4926;42.670;23.316;2022-07-15T07:55:58;7.90;;;3.38;;
9773;SDS011;4926;42.670;23.316;2022-07-15T07:58:25;5.88;;;3.10;;
9773;SDS011;4926;42.670;23.316;2022-07-15T08:00:57;5.78;;;3.20;;
9773;SDS011;4926;42.670;23.316;2022-07-15T08:03:24;11.40;;;3.53;;
9773;SDS011;4926;42.670;23.316;2022-07-15T08:05:52;6.65;;;3.58;;
9773;SDS011;4926;42.670;23.316;2022-07-15T08:08:21;11.82;;;3.67;;
9773;SDS011;4926;42.670;23.316;2022-07-15T08:10:50;9.90;;;3.20;;
9773;SDS011;4926;42.670;23.316;2022-07-15T08:13:22;10.30;;;3.25;;
9773;SDS011;4926;42.670;23.316;2022-07-15T08:15:51;11.27;;;3.58;;
9773;SDS011;4926;42.670;23.316;2022-07-15T08:18:21;6.95;;;3.20;;
9773;SDS011;4926;42.670;23.316;2022-07-15T08:20:48;7.05;;;3.00;;
9773;SDS011;4926;42.670;23.316;2022-07-15T08:23:16;6.13;;;3.05;;
9773;SDS011;4926;42.670;23.316;2022-07-15T08:25:46;6.40;;;3.13;;
9773;SDS011;4926;42.670;23.316;2022-07-15T08:28:14;7.55;;;2.70;;
9773;SDS011;4926;42.670;23.316;2022-07-15T08:30:42;7.20;;;3.10;;
9773;SDS011;4926;42.670;23.316;2022-07-15T08:33:09;6.25;;;3.00;;
9773;SDS011;4926;42.670;23.316;2022-07-15T08:35:36;4.25;;;2.95;;
9773;SDS011;4926;42.670;23.316;2022-07-15T08:38:06;12.85;;;3.63;;
9773;SDS011;4926;42.670;23.316;2022-07-15T08:40:36;6.95;;;2.70;;
9773;SDS011;4926;42.670;23.316;2022-07-15T08:43:07;6.57;;;2.50;;
9773;SDS011;4926;42.670;23.316;2022-07-15T08:45:35;10.23;;;2.85;;
9773;SDS011;4926;42.670;23.316;2022-07-15T08:48:07;10.88;;;3.03;;
9773;SDS011;4926;42.670;23.316;2022-07-15T08:50:35;10.35;;;3.13;;
9773;SDS011;4926;42.670;23.316;2022-07-15T08:53:05;6.68;;;2.78;;
9773;SDS011;4926;42.670;23.316;2022-07-15T08:55:40;4.68;;;2.30;;
9773;SDS011;4926;42.670;23.316;2022-07-15T08:58:06;3.58;;;2.40;;
9773;SDS011;4926;42.670;23.316;2022-07-15T09:00:37;10.38;;;2.90;;
9773;SDS011;4926;42.670;23.316;2022-07-15T09:03:15;11.30;;;3.35;;
9773;SDS011;4926;42.670;23.316;2022-07-15T09:05:43;4.88;;;2.60;;
9773;SDS011;4926;42.670;23.316;2022-07-15T09:08:14;4.15;;;2.60;;
9773;SDS011;4926;42.670;23.316;2022-07-15T09:10:45;2.45;;;2.25;;
9773;SDS011;4926;42.670;23.316;2022-07-15T09:13:21;6.00;;;2.50;;
9773;SDS011;4926;42.670;23.316;2022-07-15T09:15:50;3.88;;;2.47;;
9773;SDS011;4926;42.670;23.316;2022-07-15T09:18:20;7.95;;;3.30;;
9773;SDS011;4926;42.670;23.316;2022-07-15T09:20:48;3.58;;;2.28;;
9773;SDS011;4926;42.670;23.316;2022-07-15T09:23:20;6.00;;;2.20;;
9773;SDS011;4926;42.670;23.316;2022-07-15T09:25:54;3.88;;;2.40;;
9773;SDS011;4926;42.670;23.316;2022-07-15T09:28:22;5.95;;;2.30;;
9773;SDS011;4926;42.670;23.316;2022-07-15T09:31:04;5.07;;;2.67;;
9773;SDS011;4926;42.670;23.316;2022-07-15T09:33:57;5.63;;;2.17;;
9773;SDS011;4926;42.670;23.316;2022-07-15T09:36:26;4.47;;;2.40;;
9773;SDS011;4926;42.670;23.316;2022-07-15T09:38:55;3.88;;;2.25;;
9773;SDS011;4926;42.670;23.316;2022-07-15T09:41:28;5.13;;;2.30;;
9773;SDS011;4926;42.670;23.316;2022-07-15T09:43:58;5.93;;;2.60;;
9773;SDS011;4926;42.670;23.316;2022-07-15T09:46:28;4.35;;;2.72;;
9773;SDS011;4926;42.670;23.316;2022-07-15T09:49:10;5.45;;;2.70;;
9773;SDS011;4926;42.670;23.316;2022-07-15T09:51:42;5.63;;;2.35;;
9773;SDS011;4926;42.670;23.316;2022-07-15T09:54:13;6.55;;;2.70;;
9773;SDS011;4926;42.670;23.316;2022-07-15T09:56:40;5.40;;;2.30;;
9773;SDS011;4926;42.670;23.316;2022-07-15T09:59:07;3.05;;;2.30;;
9773;SDS011;4926;42.670;23.316;2022-07-15T10:01:34;6.28;;;2.28;;
9773;SDS011;4926;42.670;23.316;2022-07-15T10:04:02;4.25;;;2.25;;
9773;SDS011;4926;42.670;23.316;2022-07-15T10:06:31;4.68;;;2.45;;
9773;SDS011;4926;42.670;23.316;2022-07-15T10:09:00;3.47;;;1.90;;
9773;SDS011;4926;42.670;23.316;2022-07-15T10:11:30;5.22;;;2.10;;
9773;SDS011;4926;42.670;23.316;2022-07-15T10:17:07;7.03;;;2.33;;
9773;SDS011;4926;42.670;23.316;2022-07-15T10:19:52;4.05;;;2.05;;
9773;SDS011;4926;42.670;23.316;2022-07-15T10:22:41;5.35;;;2.20;;
9773;SDS011;4926;42.670;23.316;2022-07-15T10:25:23;3.92;;;2.42;;
9773;SDS011;4926;42.670;23.316;2022-07-15T10:28:01;3.95;;;2.20;;
9773;SDS011;4926;42.670;23.316;2022-07-15T10:30:31;3.40;;;2.17;;
9773;SDS011;4926;42.670;23.316;2022-07-15T10:33:08;5.95;;;2.67;;
9773;SDS011;4926;42.670;23.316;2022-07-15T10:35:39;4.97;;;2.30;;
9773;SDS011;4926;42.670;23.316;2022-07-15T10:38:31;9.55;;;2.33;;
9773;SDS011;4926;42.670;23.316;2022-07-15T10:41:00;3.45;;;2.17;;
9773;SDS011;4926;42.670;23.316;2022-07-15T10:43:38;4.72;;;2.47;;
9773;SDS011;4926;42.670;23.316;2022-07-15T10:46:17;5.20;;;2.30;;
9773;SDS011;4926;42.670;23.316;2022-07-15T10:48:46;3.17;;;2.13;;
9773;SDS011;4926;42.670;23.316;2022-07-15T10:57:09;10.52;;;3.10;;
9773;SDS011;4926;42.670;23.316;2022-07-15T10:59:39;7.18;;;2.90;;
9773;SDS011;4926;42.670;23.316;2022-07-15T11:02:16;5.28;;;2.45;;
9773;SDS011;4926;42.670;23.316;2022-07-15T11:04:46;6.03;;;2.40;;
9773;SDS011;4926;42.670;23.316;2022-07-15T11:10:18;5.82;;;2.88;;
9773;SDS011;4926;42.670;23.316;2022-07-15T11:13:05;3.28;;;2.30;;
9773;SDS011;4926;42.670;23.316;2022-07-15T11:15:32;3.08;;;2.00;;
9773;SDS011;4926;42.670;23.316;2022-07-15T11:17:59;3.85;;;2.42;;
9773;SDS011;4926;42.670;23.316;2022-07-15T11:20:32;3.25;;;2.17;;
9773;SDS011;4926;42.670;23.316;2022-07-15T11:23:01;3.65;;;2.03;;
9773;SDS011;4926;42.670;23.316;2022-07-15T11:25:31;4.20;;;1.88;;
9773;SDS011;4926;42.670;23.316;2022-07-15T11:28:01;3.90;;;2.00;;
9773;SDS011;4926;42.670;23.316;2022-07-15T11:30:31;2.58;;;1.85;;
9773;SDS011;4926;42.670;23.316;2022-07-15T11:33:01;4.47;;;1.90;;
9773;SDS011;4926;42.670;23.316;2022-07-15T11:35:41;5.53;;;3.15;;
9773;SDS011;4926;42.670;23.316;2022-07-15T11:38:09;4.38;;;2.17;;
9773;SDS011;4926;42.670;23.316;2022-07-15T11:40:43;5.05;;;2.10;;
9773;SDS011;4926;42.670;23.316;2022-07-15T11:43:34;4.30;;;2.05;;
9773;SDS011;4926;42.670;23.316;2022-07-15T11:46:19;2.75;;;2.28;;
9773;SDS011;4926;42.670;23.316;2022-07-15T11:48:56;4.50;;;2.60;;
9773;SDS011;4926;42.670;23.316;2022-07-15T11:51:30;5.30;;;2.47;;
9773;SDS011;4926;42.670;23.316;2022-07-15T11:54:00;3.67;;;2.53;;
9773;SDS011;4926;42.670;23.316;2022-07-15T11:56:28;2.95;;;2.17;;
9773;SDS011;4926;42.670;23.316;2022-07-15T11:58:55;6.05;;;2.83;;
9773;SDS011;4926;42.670;23.316;2022-07-15T12:01:24;2.60;;;2.40;;
9773;SDS011;4926;42.670;23.316;2022-07-15T12:03:55;3.03;;;2.50;;
9773;SDS011;4926;42.670;23.316;2022-07-15T12:06:26;3.83;;;2.42;;
9773;SDS011;4926;42.670;23.316;2022-07-15T12:08:57;5.05;;;2.40;;
9773;SDS011;4926;42.670;23.316;2022-07-15T12:11:25;3.17;;;2.40;;
9773;SDS011;4926;42.670;23.316;2022-07-15T12:13:56;4.65;;;3.03;;
9773;SDS011;4926;42.670;23.316;2022-07-15T12:16:26;6.13;;;2.75;;
9773;SDS011;4926;42.670;23.316;2022-07-15T12:18:58;5.95;;;2.47;;
9773;SDS011;4926;42.670;23.316;2022-07-15T12:21:27;6.03;;;2.80;;
9773;SDS011;4926;42.670;23.316;2022-07-15T12:23:58;6.43;;;3.00;;
9773;SDS011;4926;42.670;23.316;2022-07-15T12:26:28;4.03;;;2.63;;
9773;SDS011;4926;42.670;23.316;2022-07-15T12:29:00;6.22;;;3.05;;
9773;SDS011;4926;42.670;23.316;2022-07-15T12:31:29;5.38;;;2.60;;
9773;SDS011;4926;42.670;23.316;2022-07-15T12:33:57;5.43;;;2.58;;
9773;SDS011;4926;42.670;23.316;2022-07-15T12:36:25;4.13;;;2.47;;
9773;SDS011;4926;42.670;23.316;2022-07-15T12:39:07;5.47;;;3.20;;
9773;SDS011;4926;42.670;23.316;2022-07-15T12:41:40;3.75;;;2.65;;
9773;SDS011;4926;42.670;23.316;2022-07-15T12:44:08;6.88;;;3.08;;
9773;SDS011;4926;42.670;23.316;2022-07-15T12:46:49;6.10;;;3.00;;
9773;SDS011;4926;42.670;23.316;2022-07-15T12:49:41;5.00;;;2.45;;
9773;SDS011;4926;42.670;23.316;2022-07-15T12:54:59;3.65;;;2.75;;
9773;SDS011;4926;42.670;23.316;2022-07-15T12:57:40;4.50;;;2.58;;
9773;SDS011;4926;42.670;23.316;2022-07-15T13:00:11;4.78;;;2.50;;
9773;SDS011;4926;42.670;23.316;2022-07-15T13:02:55;5.07;;;2.70;;
9773;SDS011;4926;42.670;23.316;2022-07-15T13:05:24;2.92;;;2.63;;
9773;SDS011;4926;42.670;23.316;2022-07-15T13:07:52;3.78;;;2.60;;
9773;SDS011;4926;42.670;23.316;2022-07-15T13:10:19;7.32;;;2.80;;
9773;SDS011;4926;42.670;23.316;2022-07-15T13:12:48;6.25;;;2.65;;
9773;SDS011;4926;42.670;23.316;2022-07-15T13:15:18;3.55;;;2.60;;
9773;SDS011;4926;42.670;23.316;2022-07-15T13:17:44;4.28;;;2.80;;
9773;SDS011;4926;42.670;23.316;2022-07-15T13:20:13;4.65;;;2.92;;
9773;SDS011;4926;42.670;23.316;2022-07-15T13:22:40;5.00;;;3.03;;
9773;SDS011;4926;42.670;23.316;2022-07-15T13:25:09;11.40;;;3.83;;
9773;SDS011;4926;42.670;23.316;2022-07-15T13:27:37;4.32;;;3.35;;
9773;SDS011;4926;42.670;23.316;2022-07-15T13:30:06;5.70;;;2.97;;
9773;SDS011;4926;42.670;23.316;2022-07-15T13:32:34;4.43;;;2.85;;
9773;SDS011;4926;42.670;23.316;2022-07-15T13:35:00;4.28;;;2.88;;
9773;SDS011;4926;42.670;23.316;2022-07-15T13:37:33;6.93;;;2.90;;
9773;SDS011;4926;42.670;23.316;2022-07-15T13:40:03;8.85;;;2.63;;
9773;SDS011;4926;42.670;23.316;2022-07-15T13:42:31;4.80;;;2.80;;
9773;SDS011;4926;42.670;23.316;2022-07-15T13:44:58;3.63;;;2.45;;
9773;SDS011;4926;42.670;23.316;2022-07-15T13:47:27;4.63;;;2.70;;
9773;SDS011;4926;42.670;23.316;2022-07-15T13:49:58;3.70;;;2.70;;
9773;SDS011;4926;42.670;23.316;2022-07-15T13:52:43;3.90;;;2.65;;
9773;SDS011;4926;42.670;23.316;2022-07-15T13:55:13;7.43;;;3.33;;
9773;SDS011;4926;42.670;23.316;2022-07-15T13:57:40;8.20;;;3.50;;
9773;SDS011;4926;42.670;23.316;2022-07-15T14:00:08;3.58;;;2.88;;
9773;SDS011;4926;42.670;23.316;2022-07-15T14:02:40;5.25;;;2.85;;
9773;SDS011;4926;42.670;23.316;2022-07-15T14:05:07;3.30;;;2.83;;
9773;SDS011;4926;42.670;23.316;2022-07-15T14:07:35;10.93;;;3.72;;
9773;SDS011;4926;42.670;23.316;2022-07-15T14:10:02;7.82;;;3.13;;
9773;SDS011;4926;42.670;23.316;2022-07-15T14:12:30;7.88;;;2.90;;
9773;SDS011;4926;42.670;23.316;2022-07-15T14:14:59;5.68;;;2.83;;
9773;SDS011;4926;42.670;23.316;2022-07-15T14:17:26;3.92;;;2.80;;
9773;SDS011;4926;42.670;23.316;2022-07-15T14:19:56;3.45;;;2.83;;
9773;SDS011;4926;42.670;23.316;2022-07-15T14:22:26;5.13;;;2.70;;
9773;SDS011;4926;42.670;23.316;2022-07-15T14:24:56;5.97;;;3.03;;
9773;SDS011;4926;42.670;23.316;2022-07-15T14:27:26;5.72;;;3.08;;
9773;SDS011;4926;42.670;23.316;2022-07-15T14:29:55;4.43;;;3.30;;
9773;SDS011;4926;42.670;23.316;2022-07-15T14:32:31;3.38;;;2.78;;
9773;SDS011;4926;42.670;23.316;2022-07-15T14:35:00;6.05;;;3.25;;
9773;SDS011;4926;42.670;23.316;2022-07-15T14:37:27;7.47;;;3.53;;
9773;SDS011;4926;42.670;23.316;2022-07-15T14:39:54;3.67;;;2.50;;
9773;SDS011;4926;42.670;23.316;2022-07-15T14:42:21;2.95;;;2.65;;
9773;SDS011;4926;42.670;23.316;2022-07-15T14:44:47;5.75;;;2.83;;
9773;SDS011;4926;42.670;23.316;2022-07-15T14:47:14;6.32;;;3.08;;
9773;SDS011;4926;42.670;23.316;2022-07-15T14:49:41;7.22;;;3.20;;
9773;SDS011;4926;42.670;23.316;2022-07-15T14:52:14;3.30;;;2.75;;
9773;SDS011;4926;42.670;23.316;2022-07-15T14:54:41;4.25;;;2.92;;
9773;SDS011;4926;42.670;23.316;2022-07-15T14:57:08;5.40;;;2.97;;
9773;SDS011;4926;42.670;23.316;2022-07-15T14:59:35;14.25;;;5.57;;
9773;SDS011;4926;42.670;23.316;2022-07-15T15:02:05;4.30;;;3.20;;
9773;SDS011;4926;42.670;23.316;2022-07-15T15:04:32;7.45;;;3.17;;
9773;SDS011;4926;42.670;23.316;2022-07-15T15:06:59;6.30;;;3.13;;
9773;SDS011;4926;42.670;23.316;2022-07-15T15:09:30;6.15;;;4.28;;
9773;SDS011;4926;42.670;23.316;2022-07-15T15:11:57;7.50;;;3.97;;
9773;SDS011;4926;42.670;23.316;2022-07-15T15:14:29;4.97;;;3.45;;
9773;SDS011;4926;42.670;23.316;2022-07-15T15:16:56;11.63;;;3.95;;
9773;SDS011;4926;42.670;23.316;2022-07-15T15:19:28;8.82;;;3.35;;
9773;SDS011;4926;42.670;23.316;2022-07-15T15:21:55;5.82;;;3.20;;
9773;SDS011;4926;42.670;23.316;2022-07-15T15:24:25;4.45;;;3.00;;
9773;SDS011;4926;42.670;23.316;2022-07-15T15:26:53;7.35;;;3.17;;
9773;SDS011;4926;42.670;23.316;2022-07-15T15:29:23;6.35;;;3.15;;